createdAt,value
2022-09-02T00:01:24.340Z,65.2
2022-09-02T00:21:24.269Z,66.2
2022-09-02T01:21:24.165Z,69.7
2022-09-02T01:41:24.114Z,68.2
2022-09-02T02:01:24.153Z,68.9
2022-09-02T02:21:24.044Z,69.3
2022-09-02T02:41:24.007Z,69.3
2022-09-02T03:01:23.995Z,69.9
2022-09-02T03:21:23.933Z,72.9
2022-09-02T04:01:23.943Z,74.6
2022-09-02T04:21:23.818Z,74.2
2022-09-02T04:41:23.788Z,75.2
2022-09-02T05:21:23.708Z,73.7
2022-09-02T05:41:23.675Z,73.2
2022-09-02T06:01:23.701Z,66.8
2022-09-02T06:21:23.594Z,61.5
2022-09-02T06:41:23.564Z,59.1
2022-09-02T07:01:23.581Z,57.1
2022-09-02T07:21:23.475Z,56.3
2022-09-02T07:41:23.437Z,55.8
2022-09-02T08:01:23.757Z,55.4
2022-09-02T08:21:23.360Z,50.9
2022-09-02T08:41:23.309Z,47.9
2022-09-02T09:01:23.306Z,46.4
2022-09-02T09:41:23.190Z,47.2
2022-09-02T10:01:23.219Z,46
2022-09-02T10:41:23.060Z,41.9
2022-09-02T11:01:23.087Z,39.3
2022-09-02T13:01:22.931Z,27.6
2022-09-02T13:21:22.728Z,27.1
2022-09-02T13:41:22.691Z,25.8
2022-09-02T14:01:22.814Z,28.7
2022-09-02T14:41:22.560Z,30.3
2022-09-02T15:21:22.464Z,28.8
2022-09-02T15:41:22.431Z,29.6
2022-09-02T16:01:25.201Z,30.9
2022-09-02T16:21:22.378Z,30.1
2022-09-02T16:41:22.301Z,32.9
2022-09-02T17:41:22.173Z,36.2
2022-09-02T18:01:22.216Z,36.7
2022-09-02T18:21:22.159Z,37.5
2022-09-02T18:41:22.069Z,38.6
2022-09-02T19:01:22.093Z,39.9
2022-09-02T20:01:21.923Z,43.6
2022-09-02T20:21:21.850Z,45.5
2022-09-02T20:41:21.790Z,46.4
2022-09-02T21:01:21.748Z,47.6
2022-09-02T21:21:21.714Z,50
2022-09-02T21:41:21.670Z,50.2
2022-09-02T22:01:21.709Z,50
2022-09-02T22:21:21.582Z,50.1
2022-09-02T23:21:21.469Z,52.4
2022-09-02T23:41:21.442Z,53.4
